Time;durP1;ratioP1;P1;durP2;ratioP2;P2;SDS_P1;SDS_P2;PMS_P1;PMS_P2;Temp;Humidity;BMP_temperature;BMP_pressure;BME280_temperature;BME280_humidity;BME280_pressure;Samples;Min_cycle;Max_cycle;Signal;HPM_P1;HPM_P2
2024/02/28 00:00:14;;;;;;;17.35;5.60;;;;;;;5.90;77.38;100489.13;5040866;28;20474;-43
2024/02/28 00:02:40;;;;;;;10.30;4.95;;;;;;;5.84;76.19;100486.38;5041943;28;20132;-45
2024/02/28 00:05:07;;;;;;;11.13;4.28;;;;;;;5.81;77.71;100486.31;5038773;28;20383;-46
2024/02/28 00:07:34;;;;;;;15.15;4.93;;;;;;;5.77;76.45;100479.38;5039737;28;20056;-46
2024/02/28 00:10:01;;;;;;;15.20;4.45;;;;;;;5.74;77.29;100479.31;5029621;28;20050;-45
2024/02/28 00:12:28;;;;;;;15.80;5.40;;;;;;;5.71;77.57;100474.09;5014228;28;20561;-48
2024/02/28 00:14:54;;;;;;;14.35;5.40;;;;;;;5.67;77.00;100473.13;5018651;28;20138;-50
2024/02/28 00:17:21;;;;;;;13.57;3.55;;;;;;;5.63;77.48;100467.06;5016065;28;20422;-44
2024/02/28 00:19:48;;;;;;;17.13;5.55;;;;;;;5.61;77.81;100473.00;5017387;28;20114;-47
2024/02/28 00:22:15;;;;;;;13.57;4.30;;;;;;;5.58;76.61;100483.19;5017669;28;20050;-46
2024/02/28 00:24:41;;;;;;;9.43;5.70;;;;;;;5.53;77.88;100471.09;5019736;28;20111;-46
2024/02/28 00:27:08;;;;;;;11.85;5.10;;;;;;;5.50;76.99;100473.59;5020640;28;20072;-49
2024/02/28 00:29:35;;;;;;;12.77;5.22;;;;;;;5.48;77.99;100475.28;5022728;28;20053;-45
2024/02/28 00:32:03;;;;;;;9.35;4.45;;;;;;;5.46;76.88;100463.19;5021313;28;20049;-49
2024/02/28 00:34:29;;;;;;;11.80;4.40;;;;;;;5.43;77.67;100468.28;5020613;28;20053;-51
2024/02/28 00:36:56;;;;;;;10.80;4.15;;;;;;;5.40;77.06;100464.78;5018855;28;20402;-48
2024/02/28 00:39:23;;;;;;;10.15;4.97;;;;;;;5.38;77.83;100466.44;5023430;28;20089;-45
2024/02/28 00:41:50;;;;;;;9.05;4.38;;;;;;;5.37;78.29;100471.56;5020073;28;20054;-47
2024/02/28 00:44:16;;;;;;;12.27;6.07;;;;;;;5.35;77.53;100475.78;5020275;28;20065;-49
2024/02/28 00:46:43;;;;;;;14.93;5.07;;;;;;;5.34;77.85;100474.91;5020970;28;20071;-49
2024/02/28 00:49:10;;;;;;;6.43;4.40;;;;;;;5.32;78.23;100471.44;5021010;28;20060;-47
2024/02/28 00:51:37;;;;;;;10.68;5.20;;;;;;;5.30;77.73;100473.09;5019931;28;20045;-50
2024/02/28 00:54:04;;;;;;;15.43;3.90;;;;;;;5.27;77.82;100473.03;5020987;28;20128;-49
2024/02/28 00:56:30;;;;;;;11.40;4.75;;;;;;;5.27;77.69;100473.03;5016821;28;20046;-46
2024/02/28 00:58:57;;;;;;;7.03;3.63;;;;;;;5.24;78.54;100472.94;5022881;28;20399;-44
2024/02/28 01:01:24;;;;;;;9.85;4.25;;;;;;;5.23;78.66;100471.19;5018069;28;20498;-45
2024/02/28 01:03:50;;;;;;;9.48;5.03;;;;;;;5.20;78.45;100477.09;5027116;28;20067;-47
2024/02/28 01:06:21;;;;;;;11.70;4.88;;;;;;;5.18;78.93;100483.03;5018928;28;20045;-44
2024/02/28 01:08:48;;;;;;;11.95;4.65;;;;;;;5.13;78.98;100480.34;5024338;28;20050;-45
2024/02/28 01:11:16;;;;;;;9.05;4.55;;;;;;;5.10;78.72;100481.13;5024613;28;20056;-52
2024/02/28 01:13:43;;;;;;;9.93;4.80;;;;;;;5.07;77.91;100481.03;5048283;28;20052;-46
2024/02/28 01:16:10;;;;;;;10.60;5.43;;;;;;;5.06;78.17;100484.44;5043396;28;20076;-44
2024/02/28 01:18:37;;;;;;;14.10;6.30;;;;;;;5.02;78.44;100485.19;5042387;28;20072;-48
2024/02/28 01:21:03;;;;;;;12.80;4.50;;;;;;;5.04;78.10;100480.09;5038001;28;20131;-46
2024/02/28 01:23:31;;;;;;;8.73;4.75;;;;;;;5.03;78.15;100483.50;5048994;28;20053;-50
2024/02/28 01:25:58;;;;;;;11.57;4.55;;;;;;;5.02;79.38;100492.91;5050492;28;20048;-45
2024/02/28 01:28:24;;;;;;;11.88;4.63;;;;;;;4.99;78.02;100491.13;5046187;28;20048;-48
2024/02/28 01:30:51;;;;;;;7.93;4.85;;;;;;;4.98;78.96;100491.97;5048986;28;20049;-49
2024/02/28 01:33:17;;;;;;;11.80;5.30;;;;;;;4.97;78.89;100494.47;5053023;28;20080;-46
2024/02/28 01:35:45;;;;;;;11.65;4.10;;;;;;;4.96;77.90;100511.56;5048203;28;20080;-48
2024/02/28 01:38:12;;;;;;;9.10;4.60;;;;;;;4.93;78.69;100513.19;5044882;28;20050;-49
2024/02/28 01:40:46;;;;;;;14.25;5.30;;;;;;;4.89;77.94;100515.69;5042377;28;20052;-49
2024/02/28 01:43:13;;;;;;;16.92;4.53;;;;;;;4.88;78.14;100519.06;5048436;28;20095;-49
2024/02/28 01:45:40;;;;;;;26.15;4.78;;;;;;;4.84;78.27;100518.94;5048755;28;20513;-46
2024/02/28 01:48:12;;;;;;;26.33;4.07;;;;;;;4.78;78.08;100519.63;5048088;28;20131;-52
2024/02/28 01:50:39;;;;;;;33.17;4.80;;;;;;;4.73;77.89;100526.34;5026316;28;20047;-46
2024/02/28 01:53:08;;;;;;;17.10;5.53;;;;;;;4.68;78.12;100513.38;5047247;28;20049;-48
2024/02/28 01:55:36;;;;;;;10.43;5.32;;;;;;;4.65;78.13;100512.38;5044402;28;20134;-47
2024/02/28 01:58:05;;;;;;;13.35;5.10;;;;;;;4.61;78.11;100502.06;5042728;28;20060;-48
2024/02/28 02:00:33;;;;;;;10.63;5.15;;;;;;;4.58;77.49;100496.84;5045695;28;20070;-47
2024/02/28 02:03:00;;;;;;;11.00;4.43;;;;;;;4.56;77.74;100501.03;5029724;28;20418;-50
2024/02/28 02:05:28;;;;;;;9.32;6.03;;;;;;;4.55;78.12;100501.88;5035384;28;20044;-49
2024/02/28 02:07:57;;;;;;;9.95;5.13;;;;;;;4.53;77.70;100498.41;5048032;28;20098;-46
2024/02/28 02:10:25;;;;;;;9.88;4.25;;;;;;;4.52;77.87;100504.34;5048217;28;20663;-52
2024/02/28 02:12:53;;;;;;;10.27;4.90;;;;;;;4.52;78.19;100495.78;5030768;28;20506;-48
2024/02/28 02:15:20;;;;;;;9.73;4.25;;;;;;;4.52;78.53;100495.78;5048871;28;20067;-48
2024/02/28 02:17:47;;;;;;;9.27;4.57;;;;;;;4.52;78.49;100494.06;5043180;28;20040;-47
2024/02/28 02:20:15;;;;;;;10.95;4.45;;;;;;;4.52;77.86;100495.78;5045451;28;20053;-53
2024/02/28 02:22:42;;;;;;;11.15;4.32;;;;;;;4.52;78.07;100499.22;5050033;28;20091;-52
2024/02/28 02:25:09;;;;;;;11.93;5.90;;;;;;;4.49;78.17;100500.00;5044075;28;20059;-48
2024/02/28 02:27:35;;;;;;;12.25;5.13;;;;;;;4.47;78.13;100513.59;5054358;28;20041;-50
2024/02/28 02:30:03;;;;;;;8.63;5.00;;;;;;;4.44;78.08;100510.94;5045077;28;20044;-48
2024/02/28 02:32:30;;;;;;;6.70;4.45;;;;;;;4.42;77.71;100502.34;5057188;28;20053;-45
2024/02/28 02:34:57;;;;;;;9.52;3.90;;;;;;;4.39;78.25;100500.53;5054676;28;20055;-47
2024/02/28 02:37:25;;;;;;;9.00;4.22;;;;;;;4.39;78.07;100504.81;5046248;28;20045;-49
2024/02/28 02:39:53;;;;;;;10.68;4.40;;;;;;;4.36;78.13;100510.72;5048326;28;20053;-47
2024/02/28 02:42:21;;;;;;;9.05;3.90;;;;;;;4.34;77.87;100496.97;5045883;28;20451;-44
2024/02/28 02:44:50;;;;;;;9.82;4.30;;;;;;;4.31;77.97;100497.75;5052314;28;20041;-43
2024/02/28 02:47:16;;;;;;;7.40;4.07;;;;;;;4.28;78.26;100502.78;5044844;28;20045;-48
2024/02/28 02:49:43;;;;;;;9.88;2.55;;;;;;;4.26;78.30;100499.31;5047550;28;20607;-48
2024/02/28 02:52:10;;;;;;;7.53;4.05;;;;;;;4.23;77.98;100502.63;5044362;28;20056;-46
2024/02/28 02:54:39;;;;;;;10.88;3.65;;;;;;;4.24;77.69;100503.53;5048352;28;20053;-46
2024/02/28 02:57:05;;;;;;;7.65;4.50;;;;;;;4.22;78.24;100495.78;5049701;28;20053;-46
2024/02/28 02:59:32;;;;;;;8.75;3.95;;;;;;;4.23;78.35;100504.34;5044359;28;20053;-49
2024/02/28 03:01:59;;;;;;;11.68;3.55;;;;;;;4.22;78.30;100502.63;5049114;28;20052;-46
2024/02/28 03:04:25;;;;;;;9.18;4.25;;;;;;;4.22;77.58;100493.22;5046695;28;20059;-44
2024/02/28 03:06:52;;;;;;;6.28;3.17;;;;;;;4.22;78.36;100497.50;5051387;28;20394;-50
2024/02/28 03:09:19;;;;;;;8.55;4.22;;;;;;;4.22;78.44;100487.22;5049693;28;20164;-45
2024/02/28 03:11:45;;;;;;;9.70;4.90;;;;;;;4.20;78.23;100482.06;5044741;28;20070;-47
2024/02/28 03:14:13;;;;;;;12.48;5.22;;;;;;;4.19;78.63;100479.44;5044827;28;20049;-46
2024/02/28 03:16:42;;;;;;;12.40;4.40;;;;;;;4.19;78.49;100476.88;5044214;28;20135;-48
2024/02/28 03:19:10;;;;;;;7.35;4.07;;;;;;;4.18;78.43;100477.69;5044260;28;20048;-51
2024/02/28 03:21:37;;;;;;;12.55;3.95;;;;;;;4.20;78.34;100483.75;5039729;28;20048;-42
2024/02/28 03:24:04;;;;;;;10.95;4.38;;;;;;;4.20;78.57;100483.75;5051851;28;20048;-45
2024/02/28 03:26:30;;;;;;;8.50;4.05;;;;;;;4.21;78.44;100470.97;5040064;28;20057;-47
2024/02/28 03:28:57;;;;;;;12.30;4.35;;;;;;;4.22;78.61;100471.84;5045121;28;20047;-45
2024/02/28 03:31:25;;;;;;;8.48;4.70;;;;;;;4.22;78.56;100472.69;5041529;28;20506;-47
2024/02/28 03:33:51;;;;;;;12.25;5.82;;;;;;;4.23;78.49;100465.88;5046890;28;20107;-43
2024/02/28 03:36:18;;;;;;;7.50;3.90;;;;;;;4.23;78.52;100469.31;5044559;28;20048;-43
2024/02/28 03:38:44;;;;;;;12.88;4.00;;;;;;;4.23;78.17;100464.16;5038945;28;20129;-47
2024/02/28 03:41:11;;;;;;;11.30;4.20;;;;;;;4.25;79.01;100461.66;5048347;28;20049;-49
2024/02/28 03:43:38;;;;;;;7.30;4.35;;;;;;;4.24;78.60;100471.06;5043984;28;20521;-50
2024/02/28 03:46:05;;;;;;;12.40;3.63;;;;;;;4.24;78.54;100465.06;5039228;28;20497;-45
2024/02/28 03:48:33;;;;;;;9.90;3.50;;;;;;;4.24;78.44;100453.13;5042860;28;20455;-48
2024/02/28 03:50:59;;;;;;;10.98;4.97;;;;;;;4.24;78.55;100455.69;5046382;28;20049;-46
2024/02/28 03:53:26;;;;;;;8.77;3.95;;;;;;;4.23;78.03;100458.19;5044907;28;20056;-42
2024/02/28 03:55:53;;;;;;;6.43;4.53;;;;;;;4.23;78.58;100447.94;5043563;28;20124;-44
2024/02/28 03:58:19;;;;;;;8.02;4.38;;;;;;;4.22;78.51;100441.06;5045150;28;20071;-45
2024/02/28 04:00:46;;;;;;;8.55;4.07;;;;;;;4.21;78.62;100444.44;5041860;28;20067;-44
2024/02/28 04:03:14;;;;;;;10.20;4.63;;;;;;;4.20;78.71;100445.28;5040036;28;20120;-47
2024/02/28 04:05:42;;;;;;;13.05;5.40;;;;;;;4.20;78.17;100442.72;5038762;28;20057;-47
2024/02/28 04:08:08;;;;;;;13.65;4.05;;;;;;;4.18;78.76;100437.53;5046716;28;20110;-46
2024/02/28 04:10:35;;;;;;;10.80;4.47;;;;;;;4.19;78.89;100448.69;5043065;28;20052;-48
2024/02/28 04:13:02;;;;;;;8.18;4.03;;;;;;;4.17;78.57;100450.31;5042297;28;20502;-44
2024/02/28 04:15:30;;;;;;;9.85;3.78;;;;;;;4.19;78.75;100446.97;5044567;28;20064;-44
2024/02/28 04:17:57;;;;;;;12.20;5.50;;;;;;;4.19;78.75;100436.69;5029802;28;20053;-47
2024/02/28 04:20:24;;;;;;;10.43;4.10;;;;;;;4.21;79.05;100447.00;5045847;28;20135;-47
2024/02/28 04:22:50;;;;;;;9.70;4.43;;;;;;;4.22;79.11;100447.06;5044832;28;20041;-45
2024/02/28 04:25:17;;;;;;;9.90;4.18;;;;;;;4.20;79.31;100447.84;5042367;28;20524;-46
2024/02/28 04:27:44;;;;;;;10.73;3.78;;;;;;;4.22;79.08;100446.22;5040807;28;20061;-50
2024/02/28 04:30:11;;;;;;;18.27;4.45;;;;;;;4.25;79.05;100446.28;5046953;28;20049;-47
2024/02/28 04:32:38;;;;;;;8.45;2.28;;;;;;;4.25;79.34;100436.00;5043184;28;20385;-42
2024/02/28 04:35:06;;;;;;;13.25;3.90;;;;;;;4.27;78.93;100436.06;5042044;28;20049;-50
2024/02/28 04:37:34;;;;;;;10.27;3.05;;;;;;;4.29;79.52;100442.97;5038369;28;20057;-46
2024/02/28 04:40:02;;;;;;;8.27;3.97;;;;;;;4.31;79.36;100436.22;5044429;28;20053;-49
2024/02/28 04:42:28;;;;;;;12.80;3.85;;;;;;;4.33;79.10;100426.84;5038735;28;20057;-53
2024/02/28 04:44:55;;;;;;;9.57;4.57;;;;;;;4.32;79.08;100414.84;5044425;28;20055;-45
2024/02/28 04:47:23;;;;;;;9.18;2.95;;;;;;;4.31;79.01;100425.94;5039137;28;20506;-50
2024/02/28 04:49:59;;;;;;;8.50;4.40;;;;;;;4.28;78.96;100410.47;5045639;28;20045;-49
2024/02/28 04:52:27;;;;;;;9.32;3.05;;;;;;;4.29;79.45;100409.63;5046188;28;20128;-48
2024/02/28 04:54:53;;;;;;;8.73;3.88;;;;;;;4.30;79.37;100419.09;5043076;28;20049;-51
2024/02/28 04:57:20;;;;;;;12.43;3.42;;;;;;;4.33;79.17;100416.59;5040293;28;20060;-47
2024/02/28 04:59:49;;;;;;;16.23;3.65;;;;;;;4.34;79.32;100410.66;5039139;28;20049;-51
2024/02/28 05:02:16;;;;;;;15.23;4.32;;;;;;;4.35;79.12;100417.53;5044701;28;20044;-47
2024/02/28 05:04:43;;;;;;;8.40;4.65;;;;;;;4.35;79.32;100421.75;5045717;28;20045;-48
2024/02/28 05:07:10;;;;;;;10.15;4.22;;;;;;;4.33;78.91;100414.03;5049388;28;20045;-48
2024/02/28 05:09:36;;;;;;;14.52;4.85;;;;;;;4.29;78.98;100401.94;5043921;28;20516;-46
2024/02/28 05:12:03;;;;;;;9.07;3.92;;;;;;;4.27;78.74;100395.91;5042449;28;20045;-51
2024/02/28 05:14:30;;;;;;;9.48;4.00;;;;;;;4.27;79.06;100410.41;5050552;28;20060;-48
2024/02/28 05:16:57;;;;;;;13.02;3.67;;;;;;;4.28;79.36;100410.47;5040127;28;20048;-47
2024/02/28 05:19:23;;;;;;;12.18;3.53;;;;;;;4.30;78.89;100419.09;5026048;28;20053;-47
2024/02/28 05:21:50;;;;;;;11.18;3.22;;;;;;;4.30;79.09;100413.97;5047921;28;20394;-50
2024/02/28 05:24:17;;;;;;;7.88;3.60;;;;;;;4.32;79.52;100416.56;5047217;28;20483;-47
2024/02/28 05:26:43;;;;;;;8.55;3.40;;;;;;;4.33;79.24;100420.88;5043388;28;20049;-51
2024/02/28 05:29:10;;;;;;;5.85;3.53;;;;;;;4.33;79.08;100413.19;5047199;28;20033;-47
2024/02/28 05:31:38;;;;;;;13.55;2.92;;;;;;;4.34;79.20;100410.66;5049320;28;20056;-47
2024/02/28 05:34:05;;;;;;;12.90;2.83;;;;;;;4.36;79.13;100413.28;5052116;28;20671;-45
2024/02/28 05:36:33;;;;;;;10.38;3.75;;;;;;;4.36;79.10;100403.84;5047142;28;20064;-49
2024/02/28 05:39:01;;;;;;;7.43;3.90;;;;;;;4.37;79.18;100405.63;5045613;28;20094;-49
2024/02/28 05:41:28;;;;;;;16.55;4.40;;;;;;;4.36;79.33;100396.16;5051782;28;20059;-44
2024/02/28 05:43:55;;;;;;;12.13;3.33;;;;;;;4.37;79.32;100384.22;5044736;28;20049;-42
2024/02/28 05:46:22;;;;;;;6.32;3.00;;;;;;;4.39;79.18;100397.09;5047485;28;20115;-45
2024/02/28 05:48:49;;;;;;;11.48;3.65;;;;;;;4.38;78.96;100378.25;5049354;28;20052;-46
2024/02/28 05:51:17;;;;;;;8.70;3.58;;;;;;;4.35;79.12;100376.47;5040865;28;20639;-49
2024/02/28 05:53:46;;;;;;;7.45;3.15;;;;;;;4.34;78.85;100364.50;5024830;28;20533;-46
2024/02/28 05:56:13;;;;;;;11.15;3.55;;;;;;;4.34;79.01;100363.63;5046562;28;20051;-49
2024/02/28 05:58:43;;;;;;;7.43;3.65;;;;;;;4.34;78.90;100361.03;5045364;28;20128;-43
2024/02/28 06:01:12;;;;;;;10.80;2.72;;;;;;;4.33;79.17;100360.16;5044018;28;20045;-50
2024/02/28 06:03:39;;;;;;;11.70;4.07;;;;;;;4.35;78.57;100376.47;5048741;28;20057;-47
2024/02/28 06:06:06;;;;;;;16.55;4.78;;;;;;;4.34;79.18;100369.63;5047630;28;20048;-46
2024/02/28 06:08:34;;;;;;;11.52;3.97;;;;;;;4.35;78.43;100366.22;5051829;28;20122;-46
2024/02/28 06:11:01;;;;;;;10.18;3.65;;;;;;;4.35;78.87;100370.47;5029586;28;20045;-46
2024/02/28 06:13:29;;;;;;;10.60;4.65;;;;;;;4.34;78.79;100377.31;5046526;28;20053;-47
2024/02/28 06:15:56;;;;;;;9.20;4.22;;;;;;;4.34;78.60;100377.31;5048059;28;20615;-47
2024/02/28 06:18:26;;;;;;;11.82;3.72;;;;;;;4.33;78.55;100367.88;5042153;28;20053;-49
2024/02/28 06:20:55;;;;;;;11.55;3.42;;;;;;;4.33;79.01;100367.88;5042344;28;20445;-48
2024/02/28 06:23:23;;;;;;;9.85;3.53;;;;;;;4.33;78.42;100367.00;5048410;28;20130;-52
2024/02/28 06:25:56;;;;;;;9.52;4.55;;;;;;;4.33;78.86;100377.28;5026265;28;20046;-44
2024/02/28 06:28:23;;;;;;;12.55;5.13;;;;;;;4.32;78.01;100371.25;5022005;28;20456;-43
2024/02/28 06:30:49;;;;;;;25.10;10.85;;;;;;;4.31;79.17;100366.97;5049738;28;20049;-52
2024/02/28 06:33:16;;;;;;;18.27;7.93;;;;;;;4.32;78.98;100371.25;5048761;28;20107;-44
2024/02/28 06:35:45;;;;;;;17.52;6.55;;;;;;;4.32;79.04;100361.00;5042759;28;20048;-47
2024/02/28 06:38:12;;;;;;;14.55;4.60;;;;;;;4.32;78.84;100361.00;5039392;28;20057;-48
2024/02/28 06:40:39;;;;;;;14.73;5.53;;;;;;;4.34;78.64;100368.75;5040710;28;20045;-48
2024/02/28 06:43:05;;;;;;;19.30;7.10;;;;;;;4.32;79.05;100361.00;5042939;28;20077;-51
2024/02/28 06:45:34;;;;;;;16.38;5.75;;;;;;;4.32;78.63;100371.25;5047926;28;20493;-51
2024/02/28 06:48:00;;;;;;;14.13;5.10;;;;;;;4.32;78.73;100358.44;5047504;28;20053;-48
2024/02/28 06:50:27;;;;;;;11.18;4.30;;;;;;;4.31;78.64;100354.16;5041631;28;20570;-45
2024/02/28 06:52:54;;;;;;;20.55;4.60;;;;;;;4.32;78.75;100355.88;5035796;28;20049;-46
2024/02/28 06:55:21;;;;;;;10.00;3.65;;;;;;;4.31;79.05;100359.28;5043712;28;20064;-46
2024/02/28 06:57:49;;;;;;;10.30;3.50;;;;;;;4.32;78.77;100368.69;5036451;28;20049;-46
2024/02/28 07:00:18;;;;;;;7.28;2.20;;;;;;;4.33;78.46;100359.31;5042394;28;20715;-47
2024/02/28 07:02:45;;;;;;;15.60;2.47;;;;;;;4.33;79.00;100360.16;5047715;28;20158;-46
2024/02/28 07:05:12;;;;;;;15.77;2.50;;;;;;;4.35;79.04;100361.09;5037717;28;20502;-46
2024/02/28 07:07:41;;;;;;;13.95;3.03;;;;;;;4.40;79.40;100362.91;5046450;28;20160;-44
2024/02/28 07:10:09;;;;;;;12.20;4.03;;;;;;;4.39;78.88;100356.06;5047135;28;20041;-47
2024/02/28 07:12:36;;;;;;;13.23;3.08;;;;;;;4.41;79.02;100360.41;5044564;28;20585;-47
2024/02/28 07:15:03;;;;;;;14.57;3.08;;;;;;;4.43;78.75;100358.72;5041793;28;20200;-49
2024/02/28 07:17:30;;;;;;;16.13;2.70;;;;;;;4.45;78.56;100358.78;5025146;28;20114;-46
2024/02/28 07:19:57;;;;;;;12.65;2.92;;;;;;;4.46;78.88;100368.22;5041956;28;20041;-43
2024/02/28 07:22:26;;;;;;;8.50;3.60;;;;;;;4.46;78.91;100357.97;5043716;28;20048;-48
2024/02/28 07:24:53;;;;;;;12.80;4.05;;;;;;;4.46;78.90;100363.94;5046277;28;20111;-45
2024/02/28 07:27:22;;;;;;;7.85;2.80;;;;;;;4.49;78.91;100368.28;5039684;28;20053;-47
2024/02/28 07:29:49;;;;;;;7.82;3.25;;;;;;;4.48;78.80;100361.44;5038985;28;20504;-46
2024/02/28 07:32:16;;;;;;;7.38;3.20;;;;;;;4.47;79.03;100355.44;5048688;28;20490;-49
2024/02/28 07:34:43;;;;;;;7.35;3.40;;;;;;;4.46;79.24;100350.28;5048541;28;20053;-45
2024/02/28 07:37:12;;;;;;;13.75;3.42;;;;;;;4.47;78.98;100364.81;5046338;28;20497;-47
2024/02/28 07:39:40;;;;;;;5.63;3.65;;;;;;;4.46;79.47;100370.78;5045016;28;20143;-45
2024/02/28 07:42:06;;;;;;;8.25;3.47;;;;;;;4.48;79.36;100376.81;5052209;28;20127;-44
2024/02/28 07:44:33;;;;;;;10.93;3.70;;;;;;;4.50;79.39;100375.19;5037152;28;20061;-48
2024/02/28 07:47:00;;;;;;;7.65;3.60;;;;;;;4.51;78.94;100369.22;5046757;28;20091;-50
2024/02/28 07:49:27;;;;;;;7.57;4.20;;;;;;;4.53;78.87;100375.28;5052297;28;20053;-50
2024/02/28 07:51:54;;;;;;;10.02;4.55;;;;;;;4.52;79.12;100368.38;5047785;28;20057;-49
2024/02/28 07:54:21;;;;;;;7.65;3.42;;;;;;;4.51;79.01;100374.34;5050767;28;20048;-51
2024/02/28 07:56:48;;;;;;;7.43;3.78;;;;;;;4.52;79.17;100378.63;5047169;28;20055;-45
2024/02/28 07:59:15;;;;;;;10.57;4.50;;;;;;;4.53;79.41;100382.97;5048118;28;20045;-47
2024/02/28 08:01:42;;;;;;;11.18;4.80;;;;;;;4.57;78.71;100387.34;5028895;28;20052;-46
2024/02/28 08:04:08;;;;;;;8.45;3.08;;;;;;;4.60;79.10;100395.09;5053108;28;20452;-47
2024/02/28 08:06:35;;;;;;;9.68;4.22;;;;;;;4.62;79.24;100388.34;5040272;28;20055;-52
2024/02/28 08:09:04;;;;;;;9.02;3.78;;;;;;;4.66;79.15;100388.41;5047644;28;20132;-45
2024/02/28 08:11:31;;;;;;;11.23;4.63;;;;;;;4.67;79.65;100377.31;5043188;28;20052;-48
2024/02/28 08:13:57;;;;;;;6.93;3.35;;;;;;;4.67;79.27;100373.06;5054991;28;20048;-52
2024/02/28 08:16:24;;;;;;;7.28;3.92;;;;;;;4.67;79.17;100378.19;5046458;28;20053;-46
2024/02/28 08:18:53;;;;;;;7.47;3.88;;;;;;;4.68;79.32;100379.94;5049142;28;20051;-44
2024/02/28 08:21:20;;;;;;;8.32;3.85;;;;;;;4.72;80.10;100373.16;5049414;28;20083;-51
2024/02/28 08:23:48;;;;;;;6.78;5.03;;;;;;;4.73;79.67;100362.94;5047752;28;20053;-47
2024/02/28 08:26:15;;;;;;;7.00;3.58;;;;;;;4.78;79.26;100373.34;5037825;28;20045;-50
2024/02/28 08:28:41;;;;;;;8.45;3.92;;;;;;;4.83;79.53;100379.47;5053932;28;20084;-46
2024/02/28 08:31:08;;;;;;;9.70;4.32;;;;;;;4.88;79.80;100383.03;5046438;28;20048;-50
2024/02/28 08:33:34;;;;;;;9.68;4.28;;;;;;;4.95;79.56;100375.47;5050706;28;20551;-47
2024/02/28 08:36:01;;;;;;;8.25;3.47;;;;;;;4.99;80.01;100367.00;5047900;28;20045;-48
2024/02/28 08:38:28;;;;;;;8.93;3.47;;;;;;;5.04;80.57;100367.13;5050164;28;20060;-45
2024/02/28 08:40:55;;;;;;;9.07;4.32;;;;;;;5.08;79.90;100364.69;5040592;28;20072;-47
2024/02/28 08:43:21;;;;;;;8.48;3.50;;;;;;;5.13;79.57;100378.50;5046111;28;20057;-42
2024/02/28 08:45:51;;;;;;;10.75;5.22;;;;;;;5.18;80.33;100375.19;5047709;28;20103;-47
2024/02/28 08:48:18;;;;;;;12.57;4.82;;;;;;;5.23;79.90;100373.59;5048237;28;20048;-47
2024/02/28 08:50:45;;;;;;;8.52;3.72;;;;;;;5.26;80.49;100368.53;5058249;28;20486;-51
2024/02/28 08:53:12;;;;;;;12.43;4.63;;;;;;;5.32;80.27;100358.41;5049711;28;21469;-47
2024/02/28 08:55:39;;;;;;;9.27;4.55;;;;;;;5.34;79.48;100356.72;5049816;28;20045;-45
2024/02/28 08:58:05;;;;;;;9.75;4.57;;;;;;;5.37;80.51;100361.94;5053644;28;20099;-46
2024/02/28 09:00:32;;;;;;;8.90;3.33;;;;;;;5.40;79.84;100354.31;5055353;28;20417;-47
2024/02/28 09:02:59;;;;;;;8.90;3.70;;;;;;;5.44;79.68;100357.81;5050850;28;20041;-44
2024/02/28 09:05:26;;;;;;;7.82;4.10;;;;;;;5.47;80.19;100352.75;5041477;28;20053;-54
2024/02/28 09:07:54;;;;;;;10.20;4.00;;;;;;;5.50;80.17;100344.25;5049605;28;20053;-48
2024/02/28 09:10:23;;;;;;;9.05;4.55;;;;;;;5.55;80.28;100337.53;5049191;28;20057;-48
2024/02/28 09:12:51;;;;;;;9.77;4.20;;;;;;;5.57;81.61;100338.41;5050314;28;20048;-49
2024/02/28 09:15:19;;;;;;;10.10;3.88;;;;;;;5.63;81.17;100336.00;5049347;28;20053;-48
2024/02/28 09:17:46;;;;;;;10.90;4.32;;;;;;;5.68;81.53;100341.25;5038353;28;20137;-46
2024/02/28 09:20:13;;;;;;;11.15;4.45;;;;;;;5.73;80.05;100338.75;5049713;28;20060;-45
2024/02/28 09:22:40;;;;;;;8.45;3.40;;;;;;;5.76;81.43;100334.56;5049692;28;20051;-44
2024/02/28 09:25:08;;;;;;;10.07;4.28;;;;;;;5.81;80.50;100342.34;5049844;28;20056;-47
2024/02/28 09:27:36;;;;;;;8.88;4.85;;;;;;;5.88;81.77;100340.81;5047789;28;20041;-48
2024/02/28 09:30:04;;;;;;;10.93;4.82;;;;;;;5.91;80.59;100339.16;5035582;28;20055;-50
2024/02/28 09:32:31;;;;;;;13.20;5.05;;;;;;;5.97;81.72;100340.09;5048722;28;20151;-51
2024/02/28 09:34:58;;;;;;;10.95;4.47;;;;;;;6.00;81.40;100333.34;5047391;28;20116;-46
2024/02/28 09:37:25;;;;;;;13.70;4.97;;;;;;;6.06;81.93;100337.78;5044747;28;20381;-48
2024/02/28 09:39:53;;;;;;;11.13;4.72;;;;;;;6.10;82.49;100320.69;5049209;28;20049;-50
2024/02/28 09:42:20;;;;;;;10.88;4.90;;;;;;;6.15;81.35;100322.53;5052885;28;20064;-49
2024/02/28 09:44:48;;;;;;;12.02;4.88;;;;;;;6.22;82.06;100320.97;5053430;28;20068;-42
2024/02/28 09:47:15;;;;;;;9.60;4.40;;;;;;;6.28;81.20;100322.75;5048948;28;20055;-47
2024/02/28 09:49:43;;;;;;;13.38;4.82;;;;;;;6.34;82.20;100327.16;5044853;28;20404;-46
2024/02/28 09:52:09;;;;;;;17.17;6.07;;;;;;;6.40;82.11;100338.44;5031022;28;20094;-49
2024/02/28 09:54:36;;;;;;;14.30;6.20;;;;;;;6.48;82.05;100335.16;5054380;28;20052;-46
2024/02/28 09:57:04;;;;;;;22.30;7.00;;;;;;;6.56;82.03;100338.75;5049568;28;20493;-46
2024/02/28 09:59:31;;;;;;;19.35;6.85;;;;;;;6.65;82.43;100322.56;5048698;28;20080;-50
2024/02/28 10:02:20;;;;;;;18.95;8.02;;;;;;;6.76;82.02;100315.06;5048317;28;20130;-43
2024/02/28 10:04:47;;;;;;;10.10;4.75;;;;;;;6.88;82.39;100310.09;5043903;28;20195;-49
2024/02/28 10:07:14;;;;;;;18.20;5.63;;;;;;;7.03;81.93;100300.91;5051649;28;20051;-59
2024/02/28 10:09:41;;;;;;;19.00;7.13;;;;;;;7.19;82.59;100304.56;5045403;28;20072;-53
2024/02/28 10:12:14;;;;;;;12.32;5.55;;;;;;;7.38;82.76;100295.41;5043892;28;20106;-47
2024/02/28 10:14:40;;;;;;;16.98;6.63;;;;;;;7.53;81.62;100291.34;5039172;28;20136;-48
2024/02/28 10:17:16;;;;;;;17.08;6.88;;;;;;;7.69;82.32;100295.84;5037164;28;20080;-50
2024/02/28 10:19:44;;;;;;;5.35;3.80;;;;;;;7.79;82.08;100291.66;5044464;28;20045;-46
2024/02/28 10:22:11;;;;;;;13.52;5.82;;;;;;;7.87;81.96;100283.16;5027042;28;20060;-52
2024/02/28 10:24:38;;;;;;;11.40;4.00;;;;;;;7.94;81.92;100279.81;5043716;28;20057;-48
2024/02/28 10:27:04;;;;;;;10.50;4.85;;;;;;;7.96;81.78;100276.41;5041581;28;20502;-49
2024/02/28 10:29:32;;;;;;;10.68;4.25;;;;;;;8.04;81.44;100276.47;5042618;28;20049;-50
2024/02/28 10:32:00;;;;;;;13.02;5.43;;;;;;;8.12;81.44;100255.94;5040545;28;20057;-50
2024/02/28 10:34:28;;;;;;;12.30;5.32;;;;;;;8.22;80.72;100270.69;5015539;28;20041;-48
2024/02/28 10:36:57;;;;;;;12.07;5.78;;;;;;;8.26;81.40;100262.94;5040171;28;20209;-42
2024/02/28 10:39:26;;;;;;;15.75;6.07;;;;;;;8.31;81.07;100256.97;5041446;28;20048;-45
2024/02/28 10:41:56;;;;;;;9.38;4.60;;;;;;;8.34;81.01;100263.88;5038543;28;20132;-47
2024/02/28 10:44:26;;;;;;;17.60;6.50;;;;;;;8.38;81.24;100257.06;5034401;28;20127;-48
2024/02/28 10:46:55;;;;;;;19.65;6.35;;;;;;;8.40;80.69;100251.03;5034272;28;20052;-46
2024/02/28 10:49:22;;;;;;;19.20;6.20;;;;;;;8.43;81.02;100247.63;5040237;28;20056;-44
2024/02/28 10:51:49;;;;;;;13.23;5.68;;;;;;;8.47;80.12;100255.41;5040666;28;20585;-46
2024/02/28 10:54:18;;;;;;;14.15;4.75;;;;;;;8.51;80.36;100250.28;5042384;28;20519;-51
2024/02/28 10:56:45;;;;;;;13.82;5.10;;;;;;;8.51;80.74;100242.53;5037424;28;20105;-50
2024/02/28 10:59:12;;;;;;;10.93;5.07;;;;;;;8.56;80.25;100254.69;5032888;28;20512;-47
2024/02/28 11:01:43;;;;;;;18.58;5.68;;;;;;;8.58;80.02;100249.53;5040499;28;20045;-49
2024/02/28 11:04:10;;;;;;;;;;;;;;;8.56;80.61;100243.47;5038904;28;20509;-45
2024/02/28 11:06:50;;;;;;;11.98;5.13;;;;;;;8.61;79.77;100250.41;5039217;28;19924;-51
2024/02/28 11:09:22;;;;;;;11.98;5.40;;;;;;;8.67;79.99;100246.13;5037706;28;20041;-46
2024/02/28 11:11:51;;;;;;;13.00;4.47;;;;;;;8.69;80.01;100245.31;5020139;28;20498;-51
2024/02/28 11:14:22;;;;;;;14.40;5.70;;;;;;;8.73;80.13;100228.13;5040246;28;20071;-49
2024/02/28 11:17:00;;;;;;;14.80;4.63;;;;;;;8.78;79.79;100220.41;5032538;28;20427;-47
2024/02/28 11:19:30;;;;;;;11.02;3.97;;;;;;;8.80;80.07;100210.94;5020634;28;20044;-46
2024/02/28 11:21:58;;;;;;;22.20;5.25;;;;;;;8.74;79.94;100207.47;5016315;28;20056;-49
2024/02/28 11:24:30;;;;;;;5.40;3.30;;;;;;;8.68;79.15;100197.09;5030607;28;20569;-47
2024/02/28 11:27:00;;;;;;;7.25;2.42;;;;;;;8.65;79.25;100197.06;5025645;28;20421;-50
2024/02/28 11:29:29;;;;;;;8.98;2.90;;;;;;;8.60;79.37;100188.44;5029906;28;20064;-49